createdAt,value
2023-01-13T00:01:29.174Z,0.10
2023-01-13T00:03:58.406Z,0.10
2023-01-13T00:06:27.259Z,0.17
2023-01-13T00:08:56.669Z,0.10
2023-01-13T00:11:26.485Z,0.05
2023-01-13T00:13:54.749Z,0.20
2023-01-13T00:16:22.988Z,0.10
2023-01-13T00:18:52.240Z,0.10
2023-01-13T00:21:23.274Z,0.00
2023-01-13T00:23:54.072Z,0.15
2023-01-13T00:26:25.537Z,0.10
2023-01-13T00:28:57.774Z,0.20
2023-01-13T00:31:26.099Z,0.10
2023-01-13T00:33:57.005Z,0.10
2023-01-13T00:36:25.072Z,0.05
2023-01-13T00:38:53.164Z,0.10
2023-01-13T00:41:24.892Z,0.00
2023-01-13T00:43:52.089Z,0.10
2023-01-13T00:46:23.088Z,0.00
2023-01-13T00:48:51.770Z,0.03
2023-01-13T00:51:21.853Z,0.10
2023-01-13T00:53:52.609Z,0.17
2023-01-13T00:56:38.647Z,0.28
2023-01-13T00:59:11.890Z,0.13
2023-01-13T01:01:41.515Z,0.10
2023-01-13T01:04:09.767Z,0.15
2023-01-13T01:06:38.104Z,0.10
2023-01-13T01:09:06.942Z,0.13
2023-01-13T01:11:35.396Z,0.00
2023-01-13T01:14:04.821Z,0.10
2023-01-13T01:16:35.520Z,0.10
2023-01-13T01:19:05.196Z,0.10
2023-01-13T01:21:34.457Z,0.10
2023-01-13T01:24:04.974Z,0.10
2023-01-13T01:26:33.574Z,0.10
2023-01-13T01:29:02.603Z,0.10
2023-01-13T01:31:33.522Z,0.10
2023-01-13T01:34:03.830Z,0.10
2023-01-13T01:36:32.013Z,0.05
2023-01-13T01:39:01.387Z,0.10
2023-01-13T01:41:33.137Z,0.10
2023-01-13T01:44:03.117Z,0.15
2023-01-13T01:46:33.906Z,0.00
2023-01-13T01:49:13.797Z,0.10
2023-01-13T01:51:46.795Z,0.10
2023-01-13T01:54:20.720Z,0.00
2023-01-13T01:56:50.091Z,0.05
2023-01-13T01:59:19.345Z,0.10
2023-01-13T02:01:49.626Z,0.00
2023-01-13T02:04:25.219Z,0.10
2023-01-13T02:06:54.897Z,0.20
2023-01-13T02:09:23.769Z,0.10
2023-01-13T02:12:09.453Z,0.10
2023-01-13T02:14:39.813Z,0.10
2023-01-13T02:17:26.170Z,0.10
2023-01-13T02:20:15.948Z,0.00
2023-01-13T02:23:07.310Z,0.10
2023-01-13T02:25:48.965Z,0.10
2023-01-13T02:29:01.133Z,0.10
2023-01-13T02:31:45.288Z,0.20
2023-01-13T02:34:20.157Z,0.00
2023-01-13T02:36:53.498Z,0.10
2023-01-13T02:39:28.479Z,0.17
2023-01-13T02:42:23.380Z,0.03
2023-01-13T02:44:57.432Z,0.13
2023-01-13T02:47:29.706Z,0.10
2023-01-13T02:50:01.489Z,0.00
2023-01-13T02:52:35.526Z,0.10
2023-01-13T02:55:07.705Z,0.10
2023-01-13T02:57:38.700Z,0.00
2023-01-13T03:00:09.331Z,0.00
2023-01-13T03:02:39.621Z,0.03
2023-01-13T03:05:08.264Z,0.10
2023-01-13T03:07:58.966Z,0.00
2023-01-13T03:10:48.910Z,0.10
2023-01-13T03:13:27.227Z,0.05
2023-01-13T03:16:03.570Z,0.10
2023-01-13T03:18:41.782Z,0.00
2023-01-13T03:21:16.723Z,0.10
2023-01-13T03:23:51.751Z,0.10
2023-01-13T03:26:27.655Z,0.22
2023-01-13T03:29:01.421Z,0.10
2023-01-13T03:31:32.888Z,0.10
2023-01-13T03:34:06.395Z,0.10
2023-01-13T03:36:39.380Z,0.00
2023-01-13T03:39:11.873Z,0.20
2023-01-13T03:41:45.581Z,0.05
2023-01-13T03:44:22.981Z,0.05
2023-01-13T03:47:00.360Z,0.10
2023-01-13T03:49:37.356Z,0.10
2023-01-13T03:52:10.520Z,0.10
2023-01-13T03:54:48.802Z,0.10
2023-01-13T03:57:20.767Z,0.10
2023-01-13T03:59:55.676Z,0.00
2023-01-13T04:02:36.778Z,0.10
2023-01-13T04:05:09.845Z,0.00
2023-01-13T04:07:53.945Z,0.10
2023-01-13T04:10:26.443Z,0.10
2023-01-13T04:13:05.235Z,0.10
2023-01-13T04:15:37.501Z,0.10
2023-01-13T04:18:12.537Z,0.10
2023-01-13T04:20:44.378Z,0.00
2023-01-13T04:23:13.598Z,0.10
2023-01-13T04:25:45.526Z,0.10
2023-01-13T04:28:21.067Z,0.10
2023-01-13T04:30:58.866Z,0.05
2023-01-13T04:33:27.336Z,0.10
2023-01-13T04:35:59.358Z,0.00
2023-01-13T04:38:35.634Z,0.20
2023-01-13T04:41:10.344Z,0.20
2023-01-13T04:43:41.601Z,0.00
2023-01-13T04:46:12.939Z,0.15
2023-01-13T04:48:44.854Z,0.00
2023-01-13T04:51:16.370Z,0.10
2023-01-13T04:53:47.331Z,0.15
2023-01-13T04:56:19.294Z,0.10
2023-01-13T04:58:47.271Z,0.08
2023-01-13T05:01:15.882Z,0.00
2023-01-13T05:03:43.988Z,0.20
2023-01-13T05:06:11.965Z,0.20
2023-01-13T05:08:41.504Z,0.10
2023-01-13T05:11:23.435Z,0.10
2023-01-13T05:14:09.244Z,0.10
2023-01-13T05:16:55.375Z,0.13
2023-01-13T05:19:23.902Z,0.10
2023-01-13T05:22:09.560Z,0.00
2023-01-13T05:24:56.866Z,0.00
2023-01-13T05:27:24.927Z,0.00
2023-01-13T05:29:53.822Z,0.03
2023-01-13T05:32:22.306Z,0.10
2023-01-13T05:34:50.733Z,0.00
2023-01-13T05:37:18.981Z,0.15
2023-01-13T05:40:06.398Z,0.10
2023-01-13T05:42:52.226Z,0.10
2023-01-13T05:45:20.221Z,0.00
2023-01-13T05:47:48.522Z,0.03
2023-01-13T05:50:17.815Z,0.13
2023-01-13T05:52:45.810Z,0.13
2023-01-13T05:55:15.725Z,0.10
2023-01-13T05:57:43.690Z,0.00
2023-01-13T06:00:12.805Z,0.10
2023-01-13T06:02:41.227Z,0.22
2023-01-13T06:05:09.982Z,0.00
2023-01-13T06:07:38.170Z,0.30
2023-01-13T06:10:07.326Z,0.17
2023-01-13T06:12:37.079Z,0.32
2023-01-13T06:15:05.911Z,0.20
2023-01-13T06:17:34.240Z,0.10
2023-01-13T06:20:02.272Z,0.10
2023-01-13T06:22:32.935Z,0.10
2023-01-13T06:25:02.264Z,0.00
2023-01-13T06:27:31.340Z,0.10
2023-01-13T06:30:01.190Z,0.10
2023-01-13T06:32:34.614Z,0.10
2023-01-13T06:35:08.620Z,0.10
2023-01-13T06:37:37.812Z,0.10
2023-01-13T06:40:08.662Z,0.10
2023-01-13T06:42:56.535Z,0.10
2023-01-13T06:45:27.737Z,0.08
2023-01-13T06:47:56.990Z,0.10
2023-01-13T06:50:25.293Z,0.08
2023-01-13T06:52:53.299Z,0.00
2023-01-13T06:55:21.631Z,0.10
2023-01-13T06:57:54.273Z,0.17
2023-01-13T07:00:24.169Z,0.20
2023-01-13T07:02:53.859Z,0.10
2023-01-13T07:05:22.465Z,0.20
2023-01-13T07:07:50.758Z,0.17
2023-01-13T07:10:22.455Z,0.10
2023-01-13T07:13:08.432Z,0.25
2023-01-13T07:15:36.902Z,0.20
2023-01-13T07:18:06.563Z,0.05
2023-01-13T07:20:34.561Z,0.10
2023-01-13T07:23:02.646Z,0.20
2023-01-13T07:25:32.450Z,0.20
2023-01-13T07:28:00.373Z,0.37
2023-01-13T07:30:28.463Z,0.25
2023-01-13T07:32:57.089Z,0.00
2023-01-13T07:35:26.496Z,0.20
2023-01-13T07:37:54.569Z,0.20
2023-01-13T07:40:22.976Z,0.00
2023-01-13T07:43:08.581Z,0.17
2023-01-13T07:45:36.961Z,0.00
2023-01-13T07:48:05.334Z,0.00
2023-01-13T07:50:34.721Z,0.10
2023-01-13T07:53:03.325Z,0.10
2023-01-13T07:55:31.520Z,0.20
2023-01-13T07:57:59.422Z,0.10
2023-01-13T08:00:27.964Z,0.10
2023-01-13T08:02:56.245Z,0.37
2023-01-13T08:05:24.303Z,0.10
2023-01-13T08:07:53.616Z,0.00
2023-01-13T08:10:21.908Z,0.00
2023-01-13T08:13:07.478Z,0.10
2023-01-13T08:15:35.771Z,0.05
2023-01-13T08:18:03.827Z,0.10
2023-01-13T08:20:31.817Z,0.13
2023-01-13T08:23:02.186Z,0.10
2023-01-13T08:25:31.221Z,0.10
2023-01-13T08:28:00.337Z,0.20
2023-01-13T08:30:29.457Z,0.15
2023-01-13T08:32:57.801Z,0.10
2023-01-13T08:35:26.156Z,0.10
2023-01-13T08:37:54.168Z,0.10
2023-01-13T08:40:23.577Z,0.10
2023-01-13T08:42:52.960Z,0.25
2023-01-13T08:45:21.256Z,0.20
2023-01-13T08:47:49.240Z,0.03
2023-01-13T08:50:17.845Z,0.05
2023-01-13T08:52:45.915Z,0.15
2023-01-13T08:55:14.088Z,0.25
2023-01-13T08:57:43.824Z,0.20
2023-01-13T09:00:13.045Z,0.10
2023-01-13T09:02:41.412Z,0.30
2023-01-13T09:05:10.885Z,0.30
2023-01-13T09:07:40.165Z,0.30
2023-01-13T09:10:09.701Z,0.20
2023-01-13T09:12:55.408Z,0.10
2023-01-13T09:15:24.751Z,0.13
2023-01-13T09:17:53.123Z,0.15
2023-01-13T09:20:21.380Z,0.25
2023-01-13T09:22:49.345Z,0.17
2023-01-13T09:25:17.841Z,0.30
2023-01-13T09:27:45.792Z,0.30
2023-01-13T09:30:14.655Z,0.20
2023-01-13T09:32:44.290Z,0.20
2023-01-13T09:35:11.318Z,0.20
2023-01-13T09:37:41.581Z,0.17
2023-01-13T09:40:16.667Z,0.00
2023-01-13T09:43:07.745Z,0.20
2023-01-13T09:45:42.450Z,0.30
2023-01-13T09:48:16.220Z,0.10
2023-01-13T09:50:58.840Z,0.25
2023-01-13T09:53:30.487Z,0.10
2023-01-13T09:55:59.043Z,0.17
2023-01-13T09:58:28.029Z,0.10
2023-01-13T10:01:08.439Z,0.10
2023-01-13T10:03:38.169Z,0.10
2023-01-13T10:06:14.554Z,0.10
2023-01-13T10:08:44.379Z,0.22
2023-01-13T10:11:33.402Z,0.20
2023-01-13T10:14:04.972Z,0.10
2023-01-13T10:16:42.376Z,0.10
2023-01-13T10:19:19.553Z,0.30
2023-01-13T10:22:25.381Z,0.10
2023-01-13T10:25:22.763Z,0.13
2023-01-13T10:27:52.480Z,0.10
2023-01-13T10:30:24.234Z,0.10
2023-01-13T10:32:57.390Z,0.10
2023-01-13T10:35:53.718Z,0.20
2023-01-13T10:38:25.099Z,0.30
2023-01-13T10:40:55.264Z,0.13
2023-01-13T10:43:24.025Z,0.20
2023-01-13T10:46:05.094Z,0.20
2023-01-13T10:48:39.722Z,0.20
2023-01-13T10:51:23.639Z,0.17
2023-01-13T10:53:56.161Z,0.28
2023-01-13T10:56:26.849Z,0.13
2023-01-13T10:59:14.253Z,0.47
2023-01-13T11:01:43.914Z,0.40
2023-01-13T11:04:30.996Z,0.30
2023-01-13T11:07:01.425Z,0.37
2023-01-13T11:09:31.651Z,0.20
2023-01-13T11:12:02.939Z,0.10
2023-01-13T11:14:40.498Z,0.10
2023-01-13T11:17:24.461Z,0.25
2023-01-13T11:19:59.063Z,0.20
2023-01-13T11:22:33.838Z,0.35
2023-01-13T11:25:05.364Z,0.40
2023-01-13T11:27:41.608Z,0.25
2023-01-13T11:30:24.040Z,0.43
2023-01-13T11:33:04.587Z,0.40
2023-01-13T11:35:37.338Z,0.30
2023-01-13T11:38:16.702Z,0.20
2023-01-13T11:40:47.823Z,0.32
2023-01-13T11:43:23.006Z,0.20
2023-01-13T11:45:54.520Z,0.20
2023-01-13T11:48:27.006Z,0.17
2023-01-13T11:51:04.502Z,0.30
2023-01-13T11:53:50.486Z,0.47
2023-01-13T11:56:34.813Z,0.40
2023-01-13T11:59:29.430Z,0.28
2023-01-13T12:02:15.276Z,0.30
2023-01-13T12:04:55.717Z,0.30
2023-01-13T12:07:37.549Z,0.13
2023-01-13T12:10:14.103Z,0.55
2023-01-13T12:12:52.005Z,0.40
2023-01-13T12:15:44.771Z,0.40
2023-01-13T12:18:25.616Z,0.20
2023-01-13T12:21:08.118Z,0.45
2023-01-13T12:23:43.076Z,0.50
2023-01-13T12:26:15.339Z,0.37
2023-01-13T12:28:49.504Z,0.35
2023-01-13T12:31:19.826Z,0.20
2023-01-13T12:34:14.483Z,0.22
2023-01-13T12:36:55.108Z,0.37
2023-01-13T12:39:31.036Z,0.20
2023-01-13T12:42:27.285Z,0.40
2023-01-13T12:45:20.971Z,0.37
2023-01-13T12:47:49.836Z,0.30
2023-01-13T12:50:41.753Z,0.77
2023-01-13T12:53:36.691Z,0.30
2023-01-13T12:56:45.056Z,0.50
2023-01-13T12:59:49.169Z,0.10
2023-01-13T13:02:27.145Z,0.25
2023-01-13T13:04:57.613Z,0.30
2023-01-13T13:07:37.272Z,0.20
2023-01-13T13:10:17.165Z,0.15
2023-01-13T13:13:17.643Z,0.30
2023-01-13T13:15:48.703Z,0.20
2023-01-13T13:18:28.531Z,0.40
2023-01-13T13:21:04.642Z,0.30
2023-01-13T13:23:43.622Z,0.20
2023-01-13T13:26:20.088Z,0.30
2023-01-13T13:28:58.140Z,0.30
2023-01-13T13:31:38.723Z,0.20
2023-01-13T13:34:22.216Z,0.25
2023-01-13T13:37:10.991Z,0.40
2023-01-13T13:40:02.074Z,0.40
2023-01-13T13:42:56.342Z,0.43
2023-01-13T13:45:44.806Z,0.45
2023-01-13T13:48:23.134Z,0.45
2023-01-13T13:50:56.538Z,0.15
2023-01-13T13:53:28.457Z,0.35
2023-01-13T13:56:00.977Z,0.43
2023-01-13T13:58:37.054Z,0.30
2023-01-13T14:01:06.417Z,0.37
2023-01-13T14:03:40.008Z,0.32
2023-01-13T14:06:08.993Z,0.65
2023-01-13T14:08:39.634Z,0.35
2023-01-13T14:11:27.699Z,0.32
2023-01-13T14:14:03.789Z,0.40
2023-01-13T14:16:32.692Z,0.40
2023-01-13T14:19:02.303Z,0.30
2023-01-13T14:21:31.217Z,0.55
2023-01-13T14:24:01.809Z,0.62
2023-01-13T14:26:32.178Z,0.68
2023-01-13T14:29:02.571Z,0.37
2023-01-13T14:31:32.292Z,0.45
2023-01-13T14:34:31.441Z,0.28
2023-01-13T14:36:54.323Z,0.10
2023-01-13T14:39:33.584Z,0.40
2023-01-13T14:42:01.868Z,0.40
2023-01-13T14:44:32.824Z,0.30
2023-01-13T14:47:03.858Z,0.70
2023-01-13T14:49:38.476Z,0.37
2023-01-13T14:52:13.321Z,0.40
2023-01-13T14:54:50.086Z,0.40
2023-01-13T14:57:27.499Z,0.22
2023-01-13T15:00:03.946Z,0.30
2023-01-13T15:02:39.587Z,0.30
2023-01-13T15:05:36.141Z,0.22
2023-01-13T15:08:30.653Z,0.43
2023-01-13T15:11:00.795Z,0.45
2023-01-13T15:13:35.650Z,0.73
2023-01-13T15:16:07.716Z,0.50
2023-01-13T15:18:39.992Z,0.50
2023-01-13T15:21:10.105Z,0.70
2023-01-13T15:23:39.939Z,0.60
2023-01-13T15:26:19.035Z,0.20
2023-01-13T15:28:47.932Z,0.28
2023-01-13T15:31:16.294Z,0.50
2023-01-13T15:33:44.318Z,0.37
2023-01-13T15:36:26.851Z,0.35
2023-01-13T15:38:55.820Z,0.43
2023-01-13T15:41:38.286Z,0.90
2023-01-13T15:44:24.111Z,0.52
2023-01-13T15:46:53.186Z,0.47
2023-01-13T15:49:27.708Z,0.30
2023-01-13T15:51:57.101Z,0.40
2023-01-13T15:54:25.486Z,0.40
2023-01-13T15:56:54.505Z,1.08
2023-01-13T15:59:25.243Z,0.50
2023-01-13T16:01:53.425Z,0.30
2023-01-13T16:04:21.805Z,0.50
2023-01-13T16:06:49.979Z,0.30
2023-01-13T16:09:19.340Z,0.62
2023-01-13T16:11:47.577Z,0.60
2023-01-13T16:14:15.564Z,0.50
2023-01-13T16:16:43.720Z,0.95
2023-01-13T16:19:13.334Z,0.62
2023-01-13T16:21:41.398Z,0.60
2023-01-13T16:24:09.480Z,0.62
2023-01-13T16:26:39.164Z,0.40
2023-01-13T16:29:08.024Z,0.68
2023-01-13T16:31:36.553Z,0.50
2023-01-13T16:34:06.765Z,0.85
2023-01-13T16:36:37.075Z,0.88
2023-01-13T16:39:06.390Z,0.40
2023-01-13T16:41:34.874Z,0.75
2023-01-13T16:44:06.144Z,0.30
2023-01-13T16:46:35.076Z,0.40
2023-01-13T16:49:05.802Z,0.40
2023-01-13T16:51:34.280Z,0.65
2023-01-13T16:54:02.579Z,0.70
2023-01-13T16:56:32.104Z,0.65
2023-01-13T16:59:07.589Z,0.50
2023-01-13T17:01:37.564Z,0.40
2023-01-13T17:04:06.613Z,0.50
2023-01-13T17:06:38.181Z,0.40
2023-01-13T17:09:09.210Z,0.80
2023-01-13T17:11:37.201Z,0.43
2023-01-13T17:14:18.955Z,1.08
2023-01-13T17:16:48.198Z,0.88
2023-01-13T17:19:16.495Z,0.70
2023-01-13T17:21:44.464Z,0.82
2023-01-13T17:24:12.792Z,0.60
2023-01-13T17:26:44.053Z,0.62
2023-01-13T17:29:16.994Z,0.52
2023-01-13T17:31:45.594Z,0.40
2023-01-13T17:34:14.334Z,0.60
2023-01-13T17:36:43.858Z,0.45
2023-01-13T17:39:16.936Z,0.65
2023-01-13T17:41:45.643Z,0.68
2023-01-13T17:44:16.325Z,0.80
2023-01-13T17:46:44.871Z,0.30
2023-01-13T17:49:13.965Z,0.25
2023-01-13T17:51:42.247Z,0.50
2023-01-13T17:54:12.308Z,0.50
2023-01-13T17:56:41.280Z,0.57
2023-01-13T17:59:10.574Z,0.40
2023-01-13T18:01:41.154Z,0.75
2023-01-13T18:04:14.904Z,0.35
2023-01-13T18:06:43.069Z,0.68
2023-01-13T18:09:11.314Z,0.45
2023-01-13T18:11:39.243Z,0.50
2023-01-13T18:14:08.175Z,0.75
2023-01-13T18:16:37.072Z,0.50
2023-01-13T18:19:24.074Z,0.82
2023-01-13T18:22:09.948Z,1.05
2023-01-13T18:24:55.801Z,0.93
2023-01-13T18:27:28.996Z,0.50
2023-01-13T18:29:59.639Z,0.50
2023-01-13T18:32:32.805Z,0.30
2023-01-13T18:35:06.668Z,0.93
2023-01-13T18:37:38.552Z,0.50
2023-01-13T18:40:09.319Z,0.30
2023-01-13T18:42:54.266Z,0.40
2023-01-13T18:45:25.233Z,0.30
2023-01-13T18:47:55.038Z,0.70
2023-01-13T18:50:25.161Z,0.57
2023-01-13T18:52:54.078Z,0.75
2023-01-13T18:55:22.853Z,1.15
2023-01-13T18:57:51.241Z,0.50
2023-01-13T19:00:21.264Z,0.32
2023-01-13T19:02:50.760Z,0.80
2023-01-13T19:05:19.281Z,0.57
2023-01-13T19:07:51.784Z,0.55
2023-01-13T19:10:20.037Z,0.93
2023-01-13T19:12:48.303Z,0.43
2023-01-13T19:15:16.948Z,0.90
2023-01-13T19:17:45.607Z,0.52
2023-01-13T19:20:13.865Z,0.37
2023-01-13T19:22:41.944Z,0.37
2023-01-13T19:25:11.548Z,0.93
2023-01-13T19:27:39.869Z,0.90
2023-01-13T19:30:09.422Z,0.70
2023-01-13T19:32:37.714Z,0.77
2023-01-13T19:35:07.348Z,0.57
2023-01-13T19:37:36.946Z,0.47
2023-01-13T19:40:09.242Z,0.50
2023-01-13T19:42:56.235Z,0.25
2023-01-13T19:45:27.858Z,0.55
2023-01-13T19:47:56.322Z,0.65
2023-01-13T19:50:25.195Z,0.70
2023-01-13T19:52:53.373Z,0.70
2023-01-13T19:55:21.364Z,0.60
2023-01-13T19:57:50.982Z,0.70
2023-01-13T20:00:20.930Z,0.82
2023-01-13T20:02:51.826Z,0.65
2023-01-13T20:05:22.747Z,0.77
2023-01-13T20:07:51.898Z,0.80
2023-01-13T20:10:21.657Z,0.43
2023-01-13T20:12:51.306Z,0.62
2023-01-13T20:15:19.584Z,0.32
2023-01-13T20:17:47.558Z,0.40
2023-01-13T20:20:16.773Z,0.55
2023-01-13T20:22:45.242Z,0.35
2023-01-13T20:25:17.023Z,0.73
2023-01-13T20:27:46.477Z,0.50
2023-01-13T20:30:16.465Z,1.27
2023-01-13T20:32:45.030Z,0.32
2023-01-13T20:35:13.734Z,0.30
2023-01-13T20:37:43.308Z,0.65
2023-01-13T20:40:15.265Z,0.30
2023-01-13T20:42:44.949Z,0.40
2023-01-13T20:45:20.868Z,0.35
2023-01-13T20:47:49.327Z,0.40
2023-01-13T20:50:18.537Z,0.30
2023-01-13T20:52:47.323Z,0.50
2023-01-13T20:55:15.707Z,0.52
2023-01-13T20:57:43.688Z,0.40
2023-01-13T21:00:12.695Z,0.22
2023-01-13T21:02:44.014Z,0.30
2023-01-13T21:05:12.297Z,0.98
2023-01-13T21:07:40.761Z,0.60
2023-01-13T21:10:11.359Z,0.32
2023-01-13T21:12:57.095Z,0.60
2023-01-13T21:15:27.341Z,0.43
2023-01-13T21:18:14.243Z,0.30
2023-01-13T21:20:42.623Z,0.30
2023-01-13T21:23:11.745Z,0.30
2023-01-13T21:25:40.224Z,0.65
2023-01-13T21:28:11.577Z,0.40
2023-01-13T21:30:40.218Z,0.32
2023-01-13T21:33:14.181Z,0.37
2023-01-13T21:35:42.273Z,0.43
2023-01-13T21:38:12.384Z,0.57
2023-01-13T21:40:40.599Z,0.37
2023-01-13T21:43:30.826Z,0.40
2023-01-13T21:46:16.705Z,0.40
2023-01-13T21:48:46.129Z,0.47
2023-01-13T21:51:14.417Z,0.62
2023-01-13T21:53:42.459Z,0.30
2023-01-13T21:56:10.443Z,0.35
2023-01-13T21:58:39.852Z,0.28
2023-01-13T22:01:09.690Z,0.30
2023-01-13T22:03:58.769Z,0.68
2023-01-13T22:06:28.164Z,0.17
2023-01-13T22:08:59.835Z,0.25
2023-01-13T22:11:28.190Z,0.30
2023-01-13T22:14:10.130Z,0.40
2023-01-13T22:16:41.933Z,0.82
2023-01-13T22:19:11.157Z,0.40
2023-01-13T22:21:41.075Z,0.80
2023-01-13T22:24:09.384Z,0.75
2023-01-13T22:26:37.815Z,0.37
2023-01-13T22:29:05.869Z,0.52
2023-01-13T22:31:33.831Z,0.37
2023-01-13T22:34:02.163Z,0.43
2023-01-13T22:36:30.387Z,0.30
2023-01-13T22:39:00.666Z,0.40
2023-01-13T22:41:29.170Z,0.30
2023-01-13T22:43:57.335Z,0.60
2023-01-13T22:46:25.350Z,0.40
2023-01-13T22:48:55.740Z,0.43
2023-01-13T22:51:24.160Z,0.40
2023-01-13T22:53:52.134Z,0.35
2023-01-13T22:56:24.096Z,0.50
2023-01-13T22:58:54.214Z,0.50
2023-01-13T23:01:23.528Z,0.40
2023-01-13T23:03:51.859Z,0.50
2023-01-13T23:06:21.878Z,0.20
2023-01-13T23:08:50.394Z,0.32
2023-01-13T23:11:21.418Z,0.43
2023-01-13T23:13:50.547Z,0.30
2023-01-13T23:16:21.606Z,0.43
2023-01-13T23:18:50.386Z,0.52
2023-01-13T23:21:20.491Z,0.20
2023-01-13T23:23:49.003Z,0.50
2023-01-13T23:26:18.030Z,0.55
2023-01-13T23:28:47.649Z,0.45
2023-01-13T23:31:17.861Z,0.40
2023-01-13T23:33:46.625Z,0.50
2023-01-13T23:36:16.822Z,0.40
2023-01-13T23:38:46.355Z,0.50
2023-01-13T23:41:16.553Z,0.60
2023-01-13T23:43:44.647Z,0.40
2023-01-13T23:46:16.725Z,0.40
2023-01-13T23:48:44.936Z,0.40
2023-01-13T23:51:14.311Z,0.45
2023-01-13T23:53:45.669Z,0.28
2023-01-13T23:56:15.460Z,0.47
2023-01-13T23:58:45.223Z,0.45
